TimeEST,TemperatureF,Dew PointF,Humidity,Sea Level PressureIn,VisibilityMPH,Wind Direction,Wind SpeedMPH,Gust SpeedMPH,PrecipitationIn,Events,Conditions,WindDirDegrees,DateUTC
12:53 AM,25.0,16.0,69,29.79,10.0,WNW,18.4,27.6,N/A,,Overcast,300,2011-12-28 05:53:00
1:33 AM,24.8,15.8,69,29.78,10.0,NW,17.3,-,N/A,,Scattered Clouds,320,2011-12-28 06:33:00
1:53 AM,24.1,15.1,69,29.82,10.0,NW,16.1,28.8,N/A,,Partly Cloudy,310,2011-12-28 06:53:00
2:53 AM,23.0,15.8,74,29.82,10.0,NNW,15.0,-,N/A,,Partly Cloudy,330,2011-12-28 07:53:00
3:53 AM,21.9,15.1,75,29.88,10.0,NNW,21.9,28.8,N/A,,Scattered Clouds,330,2011-12-28 08:53:00
4:05 AM,23.0,15.8,74,29.86,10.0,NW,19.6,26.5,N/A,,Mostly Cloudy,320,2011-12-28 09:05:00
4:53 AM,21.0,14.0,74,29.90,10.0,NW,11.5,-,N/A,,Mostly Cloudy,320,2011-12-28 09:53:00
5:12 AM,21.2,12.2,68,29.88,10.0,NW,20.7,26.5,N/A,,Scattered Clouds,320,2011-12-28 10:12:00
5:53 AM,19.9,12.0,71,29.93,10.0,NW,15.0,-,N/A,,Clear,310,2011-12-28 10:53:00
6:53 AM,19.0,10.0,68,29.96,10.0,NW,16.1,-,N/A,,Clear,310,2011-12-28 11:53:00
7:53 AM,18.0,9.0,68,29.98,10.0,NW,10.4,21.9,N/A,,Clear,320,2011-12-28 12:53:00
8:53 AM,18.0,9.0,68,30.01,10.0,NW,11.5,-,N/A,,Clear,320,2011-12-28 13:53:00
9:53 AM,19.0,9.0,65,30.04,10.0,NNW,12.7,-,N/A,,Clear,330,2011-12-28 14:53:00
10:53 AM,19.9,7.0,57,30.05,10.0,NW,12.7,-,N/A,,Clear,320,2011-12-28 15:53:00
11:53 AM,21.0,7.0,55,30.04,10.0,NW,8.1,-,N/A,,Clear,310,2011-12-28 16:53:00
12:53 PM,23.0,8.1,53,30.03,10.0,WNW,8.1,-,N/A,,Clear,300,2011-12-28 17:53:00
1:53 PM,23.0,9.0,55,30.03,10.0,West,10.4,-,N/A,,Clear,270,2011-12-28 18:53:00
2:53 PM,24.1,10.9,57,30.03,10.0,WSW,8.1,-,N/A,,Clear,240,2011-12-28 19:53:00
3:53 PM,24.1,12.9,62,30.04,10.0,WSW,8.1,-,N/A,,Clear,240,2011-12-28 20:53:00
4:53 PM,24.1,10.9,57,30.04,10.0,SW,4.6,-,N/A,,Clear,230,2011-12-28 21:53:00
5:53 PM,21.9,12.0,66,30.04,10.0,South,3.5,-,N/A,,Clear,190,2011-12-28 22:53:00
6:53 PM,21.0,12.0,68,30.04,10.0,Calm,Calm,-,N/A,,Clear,0,2011-12-28 23:53:00
7:53 PM,18.0,12.0,78,30.03,10.0,ESE,4.6,-,N/A,,Clear,120,2011-12-29 00:53:00
8:53 PM,17.1,12.9,84,30.02,10.0,ESE,5.8,-,N/A,,Clear,120,2011-12-29 01:53:00
9:53 PM,16.0,12.0,84,30.01,10.0,SE,5.8,-,N/A,,Scattered Clouds,130,2011-12-29 02:53:00
10:53 PM,19.9,14.0,78,30.00,10.0,SE,5.8,-,N/A,,Overcast,140,2011-12-29 03:53:00
11:53 PM,21.9,14.0,72,29.98,10.0,SSE,6.9,-,N/A,,Overcast,160,2011-12-29 04:53:00